Aérodrome :
LOGIN :

S'inscrire | Disclaimer

   EN    FR    IT 

 










Légende :    VFR   VFR Marginal   IFR   IFR Intensif   IFR Très Intensif
Visi : 
Plafond : 
>= 8 km
>= 3000ft
5 à 8 km
1000 à 3000 ft
1500m à 5 km
500 à 1000 ft
800 à 1500m
200 à 500 ft
< 800m
< 200 ft
Symboles :   Orages  Brouillard  Fortes neiges  Fortes précipitations  Vent > 20 kt
SIGMETs :   Divers  Orages  Givrage  Turbulence  Onde Orograph.  Cendres Volcan.






- Altitude de l'aérodrome : 272 ft
- Code IATA : MXN


LFRU - Morlaix-Ploujean

DERNIER METAR :
  • 171200Z AUTO 27018G30KT 9999 FEW029/// BKN038/// BKN048/// ///CB 09/05 Q1018

METARs EXPIRÉS :
  • 171130Z AUTO 26018KT 9999 FEW030/// SCT038/// BKN046/// ///CB 08/04 Q1018
  • 171100Z AUTO 27019KT 9999 BKN034/// OVC044/// ///TCU 10/04 Q1017
  • 171030Z AUTO 26022KT 220V280 9999 FEW033/// SCT039/// OVC062/// ///TCU 10/04 Q1017
  • 171000Z AUTO 26016KT 9999 FEW036/// OVC064/// ///TCU 10/05 Q1016
  • 170930Z AUTO 24015KT 9999 FEW033 BKN039 BKN046 09/05 Q1016

TAF N/A



MET'MAP, la Météo Aéronautique d'un coup d'oeil ! - Copyright ORBIFLY Décembre 2007 - Disclaimer

ORBIFLY MET'MAP TEAM :

Programmation & Développement : Alexandra Zaïnal
Sur une idée originale de : Baudouin d'Aumeries
Assistance à la programmation : Marc-Olivier Méhu
Soutien technique & logistique : Manuel Goepfert

Contact : metmap@orbifly.com




SOURCES & CREDITS :

   NOAA